LHNS weather

Nagyszénás
Nagyszénás, Békés, Hungary

Public forecast

Using degrees Celsius for public forecast. Weather courtesy of forecast.io.

METAR (pilot weather report)

Report is more than 2 hours old.

Closest report is Békéscsaba Airfield, 20.0 nm (37.0 km) E. Retrieved 2019/08/25 11:45 UTC (3 hours ago):

LHBC 251145Z 32001KT 9999 FEW066TCU 33/16 Q1019

TAF (pilot weather forecast)

Forecast is more than 12 hours old.

Closest forecast is Szolnok Air Base, 31.1 nm (57.6 km) NW. Retrieved 2016/06/17 03:24 UTC (3 years ago):

TAF TAF LHSN 170215Z 1703/1715 17009KT CAVOK BECMG 1707/1710 24015G25KT